Time;durP1;ratioP1;P1;durP2;ratioP2;P2;SDS_P1;SDS_P2;PMS_P1;PMS_P2;Temp;Humidity;BMP_temperature;BMP_pressure;BME280_temperature;BME280_humidity;BME280_pressure;Samples;Min_cycle;Max_cycle;Signal;HPM_P1;HPM_P2
2023/03/01 16:44:43;;;;;;;25.20;16.20;;;;;;;2.19;71.18;101441.17;105184;1301;544888;-74
2023/03/01 16:47:18;;;;;;;25.30;14.50;;;;;;;2.18;71.14;101438.77;107880;1267;37168;-75
2023/03/01 16:49:53;;;;;;;24.00;13.50;;;;;;;2.22;71.30;101441.58;107894;1287;37330;-75
2023/03/01 16:52:28;;;;;;;23.40;13.20;;;;;;;2.29;71.17;101434.77;107903;1268;36550;-75
2023/03/01 16:55:03;;;;;;;21.50;12.90;;;;;;;2.36;71.22;101432.11;107934;1287;37303;-74
2023/03/01 16:57:40;;;;;;;25.40;12.80;;;;;;;2.43;71.37;101434.44;107456;1269;635106;-72
2023/03/01 17:00:18;;;;;;;20.60;13.30;;;;;;;2.44;71.31;101441.85;107884;1267;174932;-75
2023/03/01 17:02:54;;;;;;;18.10;12.40;;;;;;;2.42;71.16;101438.73;108173;1266;37588;-77
2023/03/01 17:05:32;;;;;;;22.30;13.60;;;;;;;2.37;71.08;101440.56;108060;1284;38105;-76
2023/03/01 17:08:06;;;;;;;19.20;12.00;;;;;;;2.30;70.89;101440.98;108493;1259;37198;-74
2023/03/01 17:10:41;;;;;;;19.30;12.90;;;;;;;2.24;70.87;101437.65;108617;1256;37096;-76
2023/03/01 17:13:16;;;;;;;20.60;12.30;;;;;;;2.19;70.88;101441.86;108850;1264;37424;-77
2023/03/01 17:15:50;;;;;;;21.60;12.60;;;;;;;2.10;70.78;101447.77;108833;1275;36620;-74
2023/03/01 17:18:28;;;;;;;18.90;12.40;;;;;;;2.04;70.80;101449.08;108699;1257;172823;-76
2023/03/01 17:21:03;;;;;;;19.30;11.90;;;;;;;1.97;70.86;101453.96;108793;1253;37032;-74
2023/03/01 17:23:39;;;;;;;24.00;13.40;;;;;;;1.88;70.88;101455.39;108757;1253;174958;-75
2023/03/01 17:26:14;;;;;;;25.50;13.90;;;;;;;1.80;71.27;101453.70;108862;1253;37013;-75
2023/03/01 17:28:51;;;;;;;20.00;12.60;;;;;;;1.70;71.28;101456.82;108823;1275;37108;-75
2023/03/01 17:31:26;;;;;;;25.80;13.70;;;;;;;1.60;71.42;101459.42;108819;1255;36066;-74
2023/03/01 17:34:08;;;;;;;27.90;13.90;;;;;;;1.50;71.35;101460.80;108878;1255;36870;-73
2023/03/01 17:36:45;;;;;;;22.70;12.70;;;;;;;1.41;71.60;101469.93;108842;1253;36974;-75
2023/03/01 17:39:24;;;;;;;31.10;13.90;;;;;;;1.34;71.82;101471.70;108792;1275;37217;-74
2023/03/01 17:42:03;;;;;;;25.00;13.60;;;;;;;1.30;71.89;101471.63;108835;1256;36999;-76
2023/03/01 17:44:38;;;;;;;22.90;13.80;;;;;;;1.25;72.17;101467.59;108859;1255;37036;-76
2023/03/01 17:47:14;;;;;;;22.20;15.00;;;;;;;1.21;72.34;101465.45;108868;1265;37025;-76
2023/03/01 17:49:51;;;;;;;27.00;13.80;;;;;;;1.14;72.23;101464.13;108881;1256;36357;-75
2023/03/01 17:52:26;;;;;;;29.00;14.80;;;;;;;1.04;72.51;101457.77;108849;1275;37034;-75
2023/03/01 17:55:04;;;;;;;28.00;14.40;;;;;;;0.94;72.54;101456.22;108837;1255;37381;-76
2023/03/01 17:57:40;;;;;;;19.20;12.50;;;;;;;0.89;72.60;101456.10;108658;1255;173038;-73
2023/03/01 18:00:19;;;;;;;22.30;13.20;;;;;;;0.83;72.57;101455.13;108906;1264;37327;-75
2023/03/01 18:02:54;;;;;;;24.70;13.30;;;;;;;0.78;72.95;101453.84;108808;1256;37073;-76
2023/03/01 18:05:33;;;;;;;;;;;;;;;0.72;73.10;101451.66;108777;1257;38576;-76
2023/03/01 18:08:12;;;;;;;25.50;13.60;;;;;;;0.60;73.19;101452.63;108794;1253;36989;-75
2023/03/01 18:10:50;;;;;;;26.30;14.00;;;;;;;0.54;73.13;101450.11;108846;1256;37148;-76
2023/03/01 18:13:28;;;;;;;28.60;16.80;;;;;;;0.47;73.07;101448.24;108654;1264;175251;-74
2023/03/01 18:16:11;;;;;;;28.70;16.50;;;;;;;0.42;73.46;101448.33;108696;1275;37183;-76
2023/03/01 18:18:56;;;;;;;29.50;15.30;;;;;;;0.38;73.36;101440.67;108788;1253;37053;-75
2023/03/01 18:21:32;;;;;;;29.70;16.50;;;;;;;0.37;73.71;101438.41;108803;1275;36958;-76
2023/03/01 18:24:11;;;;;;;32.60;17.40;;;;;;;0.38;73.88;101439.31;108895;1256;37104;-75
2023/03/01 18:26:47;;;;;;;;;;;;;;;0.41;74.25;101437.11;108847;1253;37167;-75
2023/03/01 18:29:31;;;;;;;43.50;21.40;;;;;;;0.37;74.38;101438.25;108630;1275;36795;-72
2023/03/01 18:32:07;;;;;;;42.50;23.70;;;;;;;0.38;74.67;101432.44;108792;1255;37103;-74
2023/03/01 18:34:42;;;;;;;42.70;23.90;;;;;;;0.40;74.94;101431.10;108794;1256;37156;-75
2023/03/01 18:37:20;;;;;;;44.00;22.90;;;;;;;0.38;75.13;101432.78;108786;1259;37130;-76
2023/03/01 18:39:56;;;;;;;45.50;23.00;;;;;;;0.37;75.21;101436.70;108718;1261;36894;-75
2023/03/01 18:42:31;;;;;;;43.30;22.90;;;;;;;0.40;75.42;101435.90;108753;1253;38490;-77
2023/03/01 18:45:15;;;;;;;43.10;23.80;;;;;;;0.43;75.41;101435.80;108819;1255;36536;-75
2023/03/01 18:47:54;;;;;;;45.00;25.60;;;;;;;0.45;75.62;101435.33;108841;1256;37045;-75
2023/03/01 18:50:33;;;;;;;51.50;27.20;;;;;;;0.45;75.78;101436.71;108804;1256;36975;-77
2023/03/01 18:53:08;;;;;;;50.80;26.30;;;;;;;0.43;75.72;101437.86;108760;1266;37226;-76
2023/03/01 18:55:44;;;;;;;48.20;25.70;;;;;;;0.38;75.56;101438.63;108792;1253;37034;-76
2023/03/01 18:58:20;;;;;;;50.00;26.90;;;;;;;0.36;75.57;101435.30;108791;1275;37153;-76
2023/03/01 19:00:54;;;;;;;48.50;25.90;;;;;;;0.33;75.56;101433.02;108719;1257;37062;-75
2023/03/01 19:03:32;;;;;;;52.50;26.80;;;;;;;0.33;75.62;101439.52;108753;1256;37277;-76
2023/03/01 19:06:07;;;;;;;49.90;26.90;;;;;;;0.31;75.73;101440.02;108786;1253;36930;-77
2023/03/01 19:08:43;;;;;;;46.70;27.60;;;;;;;0.29;75.89;101444.61;108771;1255;37086;-77
2023/03/01 19:11:23;;;;;;;49.90;27.00;;;;;;;0.28;75.94;101444.42;108785;1275;37241;-76
2023/03/01 19:13:58;;;;;;;47.80;28.20;;;;;;;0.25;76.01;101445.89;108758;1254;37003;-75
2023/03/01 19:16:35;;;;;;;48.30;26.60;;;;;;;0.18;75.96;101450.05;108796;1255;35952;-74
2023/03/01 19:19:10;;;;;;;52.10;26.90;;;;;;;0.15;75.80;101454.77;108722;1254;36989;-74
2023/03/01 19:21:46;;;;;;;49.40;26.80;;;;;;;0.14;76.07;101461.78;108755;1253;37069;-72
2023/03/01 19:24:21;;;;;;;51.50;28.70;;;;;;;0.12;76.44;101461.91;108670;1275;175339;-76
2023/03/01 19:26:59;;;;;;;50.20;28.80;;;;;;;0.11;76.27;101470.11;108655;1256;175352;-76
2023/03/01 19:29:36;;;;;;;53.00;29.60;;;;;;;0.07;76.50;101474.34;108750;1255;36990;-74
2023/03/01 19:32:12;;;;;;;53.90;30.40;;;;;;;0.01;76.55;101476.08;108756;1257;36955;-76
2023/03/01 19:34:51;;;;;;;53.20;27.40;;;;;;;-0.09;76.09;101475.34;108794;1253;36144;-76
2023/03/01 19:37:28;;;;;;;52.40;28.00;;;;;;;-0.16;76.08;101472.08;108842;1265;37209;-76
2023/03/01 19:40:05;;;;;;;48.70;25.50;;;;;;;-0.19;76.51;101470.46;108819;1275;37057;-73
2023/03/01 19:42:40;;;;;;;54.80;29.30;;;;;;;-0.23;76.16;101470.54;108730;1260;39398;-74
2023/03/01 19:45:25;;;;;;;55.30;28.20;;;;;;;-0.30;76.32;101469.36;108824;1256;37103;-72
2023/03/01 19:48:02;;;;;;;52.50;29.70;;;;;;;-0.33;76.55;101470.83;108761;1270;172909;-72
2023/03/01 19:50:37;;;;;;;58.40;29.80;;;;;;;-0.37;76.63;101467.64;108754;1259;38846;-73
2023/03/01 19:53:12;;;;;;;54.60;28.80;;;;;;;-0.43;76.90;101470.92;108737;1258;39160;-73
2023/03/01 19:55:48;;;;;;;55.50;29.00;;;;;;;-0.48;76.91;101475.59;108726;1275;38306;-74
2023/03/01 19:58:23;;;;;;;51.50;29.60;;;;;;;-0.51;76.89;101473.48;108773;1264;37130;-75
2023/03/01 20:01:00;;;;;;;51.40;28.30;;;;;;;-0.50;77.03;101472.30;108806;1275;36985;-74
2023/03/01 20:03:38;;;;;;;54.80;30.70;;;;;;;-0.55;77.04;101474.09;108799;1274;37613;-76
2023/03/01 20:06:15;;;;;;;57.50;30.70;;;;;;;-0.59;77.19;101479.28;108890;1256;36762;-77
2023/03/01 20:08:54;;;;;;;54.00;30.90;;;;;;;-0.61;77.35;101475.79;108880;1255;37295;-74
2023/03/01 20:11:28;;;;;;;52.90;29.00;;;;;;;-0.66;77.22;101478.58;108904;1255;36378;-73
2023/03/01 20:14:11;;;;;;;53.70;28.80;;;;;;;-0.71;77.27;101484.30;108856;1255;36940;-74
2023/03/01 20:16:46;;;;;;;57.20;30.70;;;;;;;-0.71;77.84;101483.09;108892;1256;37323;-75
2023/03/01 20:19:22;;;;;;;57.70;30.30;;;;;;;-0.68;77.70;101479.71;108902;1255;37356;-77
2023/03/01 20:21:57;;;;;;;56.50;32.00;;;;;;;-0.69;77.55;101483.65;108873;1272;37095;-74
2023/03/01 20:24:34;;;;;;;58.40;32.00;;;;;;;-0.73;77.67;101482.52;108905;1255;37107;-76
2023/03/01 20:27:09;;;;;;;65.00;32.80;;;;;;;-0.79;77.66;101484.73;108947;1256;36960;-78
2023/03/01 20:29:47;;;;;;;58.90;31.90;;;;;;;-0.85;77.70;101490.10;108864;1253;39162;-78
2023/03/01 20:32:22;;;;;;;54.30;31.40;;;;;;;-0.87;77.74;101491.76;108845;1274;37342;-76
2023/03/01 20:34:58;;;;;;;60.20;35.40;;;;;;;-0.85;77.81;101492.13;108933;1261;36102;-76
2023/03/01 20:37:35;;;;;;;66.60;35.80;;;;;;;-0.84;78.29;101490.80;108922;1259;36811;-78
2023/03/01 20:40:25;;;;;;;73.20;38.30;;;;;;;-0.80;78.36;101490.21;108853;1256;37116;-77
2023/03/01 20:43:02;;;;;;;68.70;39.00;;;;;;;-0.80;78.64;101488.16;108900;1274;36150;-75
2023/03/01 20:45:37;;;;;;;69.80;39.80;;;;;;;-0.82;78.78;101486.38;108918;1273;37149;-74
2023/03/01 20:48:15;;;;;;;75.60;37.80;;;;;;;-0.85;78.71;101486.31;108910;1257;38534;-75
2023/03/01 20:50:50;;;;;;;65.00;37.10;;;;;;;-0.87;78.71;101485.75;108949;1250;38174;-77
2023/03/01 20:53:29;;;;;;;71.50;38.40;;;;;;;-0.84;78.87;101482.57;108819;1263;37010;-77
2023/03/01 20:56:14;;;;;;;68.10;38.70;;;;;;;-0.81;78.91;101480.59;108909;1256;37102;-76
2023/03/01 20:58:56;;;;;;;73.00;41.40;;;;;;;-0.79;78.85;101479.79;108914;1273;36992;-75
2023/03/01 21:01:34;;;;;;;75.50;40.60;;;;;;;-0.81;78.87;101480.77;108799;1258;36846;-74
2023/03/01 21:04:12;;;;;;;78.40;42.90;;;;;;;-0.84;79.13;101482.56;108863;1255;38259;-76
2023/03/01 21:06:47;;;;;;;;;;;;;;;-0.89;79.29;101482.61;108880;1256;37109;-77
2023/03/01 21:09:23;;;;;;;68.80;36.40;;;;;;;-0.97;79.35;101481.72;108917;1254;37033;-75
2023/03/01 21:12:03;;;;;;;70.00;39.30;;;;;;;-0.95;79.60;101483.98;108896;1273;37332;-76
2023/03/01 21:14:42;;;;;;;74.10;39.50;;;;;;;-0.92;79.95;101482.19;108901;1273;37127;-76
2023/03/01 21:17:18;;;;;;;75.00;40.30;;;;;;;-0.89;79.84;101483.80;108952;1251;37380;-77
2023/03/01 21:19:53;;;;;;;70.20;39.40;;;;;;;-0.90;79.21;101480.54;108975;1272;36931;-76
2023/03/01 21:22:28;;;;;;;73.60;39.20;;;;;;;-0.93;79.46;101482.48;108869;1274;37362;-79
2023/03/01 21:25:03;;;;;;;65.90;37.00;;;;;;;-0.97;79.38;101479.30;108938;1256;37215;-76
2023/03/01 21:27:41;;;;;;;67.50;37.70;;;;;;;-0.98;79.25;101476.02;108903;1256;38211;-77
2023/03/01 21:30:18;;;;;;;67.10;38.40;;;;;;;-0.99;79.06;101472.76;108910;1256;37121;-74
2023/03/01 21:32:52;;;;;;;71.10;38.10;;;;;;;-0.98;79.32;101473.98;108885;1261;37108;-75
2023/03/01 21:35:26;;;;;;;72.80;39.50;;;;;;;-0.99;79.44;101468.31;108891;1256;37034;-75
2023/03/01 21:38:01;;;;;;;68.20;39.90;;;;;;;-1.02;79.48;101470.27;108866;1261;37683;-76
2023/03/01 21:40:36;;;;;;;67.60;38.30;;;;;;;-1.09;79.37;101470.26;108908;1257;37123;-77
2023/03/01 21:43:10;;;;;;;63.40;35.80;;;;;;;-1.15;79.29;101464.79;108858;1256;36311;-76
2023/03/01 21:45:45;;;;;;;61.80;35.50;;;;;;;-1.22;79.22;101464.77;108959;1268;36967;-75
2023/03/01 21:48:21;;;;;;;65.80;36.20;;;;;;;-1.24;79.19;101466.92;108841;1256;37005;-74
2023/03/01 21:51:01;;;;;;;61.20;36.60;;;;;;;-1.27;79.09;101466.69;108899;1256;37519;-76
2023/03/01 21:53:37;;;;;;;71.30;38.10;;;;;;;-1.28;79.55;101463.59;108911;1250;38593;-76
2023/03/01 21:56:12;;;;;;;65.90;36.60;;;;;;;-1.31;79.60;101461.60;108815;1264;38790;-76
2023/03/01 21:58:46;;;;;;;68.60;37.40;;;;;;;-1.37;79.36;101462.80;108899;1257;36147;-77
2023/03/01 22:01:24;;;;;;;64.30;34.50;;;;;;;-1.41;79.45;101460.12;108880;1262;37272;-77
2023/03/01 22:03:59;;;;;;;59.30;33.50;;;;;;;-1.45;79.37;101465.33;108780;1262;175376;-74
2023/03/01 22:06:39;;;;;;;66.60;35.20;;;;;;;-1.46;79.46;101463.91;108893;1273;36945;-73
2023/03/01 22:09:16;;;;;;;61.20;34.20;;;;;;;-1.47;79.48;101464.58;108959;1250;37441;-74
2023/03/01 22:11:52;;;;;;;63.50;35.00;;;;;;;-1.48;79.43;101461.80;108841;1260;37015;-74
2023/03/01 22:14:27;;;;;;;65.40;36.50;;;;;;;-1.51;79.41;101463.11;108878;1273;36773;-76
2023/03/01 22:17:01;;;;;;;61.10;33.50;;;;;;;-1.56;79.62;101462.59;108855;1255;37292;-76
2023/03/01 22:19:36;;;;;;;59.30;33.40;;;;;;;-1.57;79.69;101463.79;108869;1273;36245;-75
2023/03/01 22:22:11;;;;;;;62.70;35.60;;;;;;;-1.56;80.14;101457.14;108833;1273;37119;-75
2023/03/01 22:24:45;;;;;;;62.00;36.50;;;;;;;-1.51;80.23;101464.46;108872;1255;37208;-76
2023/03/01 22:27:19;;;;;;;65.80;36.80;;;;;;;-1.48;80.30;101463.15;108868;1252;36962;-76
2023/03/01 22:29:53;;;;;;;68.40;37.50;;;;;;;-1.45;80.83;101464.80;108844;1256;37604;-76
2023/03/01 22:32:28;;;;;;;67.60;38.60;;;;;;;-1.46;80.78;101462.02;108792;1264;37146;-76
2023/03/01 22:35:02;;;;;;;64.20;36.00;;;;;;;-1.50;80.61;101462.27;108843;1251;37399;-74
2023/03/01 22:37:36;;;;;;;67.30;36.00;;;;;;;-1.55;80.16;101455.47;108844;1273;37368;-75
2023/03/01 22:40:13;;;;;;;68.50;36.70;;;;;;;-1.57;80.64;101457.46;108854;1253;36308;-75
2023/03/01 22:42:47;;;;;;;64.10;35.30;;;;;;;-1.55;80.88;101460.92;108860;1257;37081;-76
2023/03/01 22:45:21;;;;;;;63.50;35.90;;;;;;;-1.53;80.77;101458.91;108867;1255;36524;-76
2023/03/01 22:47:57;;;;;;;66.90;38.00;;;;;;;-1.51;80.62;101462.21;108784;1252;37119;-75
2023/03/01 22:50:31;;;;;;;72.70;39.90;;;;;;;-1.54;80.79;101460.80;108906;1255;37043;-77
2023/03/01 22:53:06;;;;;;;71.20;38.70;;;;;;;-1.59;80.66;101461.85;108865;1256;37066;-78
2023/03/01 22:55:40;;;;;;;69.00;38.30;;;;;;;-1.64;80.58;101464.10;108844;1256;37419;-77
2023/03/01 22:58:14;;;;;;;70.10;39.20;;;;;;;-1.69;80.56;101461.20;108808;1267;37064;-77
2023/03/01 23:00:48;;;;;;;69.50;39.50;;;;;;;-1.69;80.61;101461.56;108913;1254;38505;-76
2023/03/01 23:03:24;;;;;;;75.70;41.70;;;;;;;-1.69;80.82;101463.25;108909;1256;36071;-76
2023/03/01 23:05:59;;;;;;;74.90;41.80;;;;;;;-1.69;80.81;101467.38;108847;1262;37069;-76
2023/03/01 23:08:33;;;;;;;85.80;47.60;;;;;;;-1.71;81.07;101462.52;108864;1256;37354;-76
2023/03/01 23:11:11;;;;;;;78.30;43.50;;;;;;;-1.73;80.96;101461.94;108876;1262;36352;-78
2023/03/01 23:13:45;;;;;;;78.40;45.80;;;;;;;-1.76;81.03;101465.63;108888;1273;37132;-76
2023/03/01 23:16:24;;;;;;;75.90;44.20;;;;;;;-1.76;81.06;101467.30;108862;1255;37047;-76
2023/03/01 23:18:59;;;;;;;79.50;44.10;;;;;;;-1.76;81.08;101469.02;108933;1263;36961;-77
2023/03/01 23:21:33;;;;;;;82.60;45.30;;;;;;;-1.76;80.68;101468.86;108858;1259;37197;-75
2023/03/01 23:24:08;;;;;;;82.20;44.40;;;;;;;-1.79;80.70;101468.11;108894;1250;37176;-76
2023/03/01 23:26:44;;;;;;;85.40;45.60;;;;;;;-1.84;80.57;101465.39;108821;1273;36465;-77
2023/03/01 23:29:18;;;;;;;82.00;46.20;;;;;;;-1.90;80.51;101464.86;108804;1259;37609;-74
2023/03/01 23:31:54;;;;;;;81.80;44.70;;;;;;;-1.94;80.39;101463.02;108873;1251;37137;-73
2023/03/01 23:34:28;;;;;;;81.90;45.20;;;;;;;-1.98;80.51;101459.65;108858;1256;37286;-77
2023/03/01 23:37:03;;;;;;;76.10;42.80;;;;;;;-2.00;80.74;101455.48;108848;1256;37587;-77
2023/03/01 23:39:37;;;;;;;82.80;45.20;;;;;;;-2.02;80.62;101455.09;108874;1255;36891;-75
2023/03/01 23:42:11;;;;;;;83.10;45.80;;;;;;;-2.04;80.63;101453.98;108857;1256;37149;-76
2023/03/01 23:44:46;;;;;;;80.70;44.30;;;;;;;-2.09;80.67;101454.88;108825;1251;37169;-77
2023/03/01 23:47:20;;;;;;;82.10;44.90;;;;;;;-2.12;80.73;101459.76;108834;1273;37157;-75
2023/03/01 23:49:55;;;;;;;81.60;45.40;;;;;;;-2.16;80.70;101462.00;108811;1256;37088;-77
2023/03/01 23:52:30;;;;;;;81.60;43.50;;;;;;;-2.19;80.82;101460.39;108838;1256;38369;-76
2023/03/01 23:55:04;;;;;;;84.10;43.60;;;;;;;-2.19;80.88;101463.96;108894;1273;36965;-75
2023/03/01 23:57:38;;;;;;;82.70;45.00;;;;;;;-2.21;80.88;101460.67;108865;1273;37103;-75
